sensor_id;sensor_type;location;lat;lon;timestamp;P1;durP1;ratioP1;P2;durP2;ratioP2
29344;SDS011;16339;48.748;2.222;2024-03-25T10:43:29;10.75;;;3.50;;
29344;SDS011;16339;48.748;2.222;2024-03-25T10:52:43;9.45;;;2.67;;
29344;SDS011;16339;48.748;2.222;2024-03-25T10:55:09;10.95;;;2.80;;
29344;SDS011;16339;48.748;2.222;2024-03-25T10:57:43;5.60;;;2.55;;
29344;SDS011;16339;48.748;2.222;2024-03-25T11:00:18;8.30;;;2.30;;
29344;SDS011;16339;48.748;2.222;2024-03-25T11:02:54;13.52;;;2.70;;
29344;SDS011;16339;48.748;2.222;2024-03-25T11:05:21;8.43;;;2.55;;
29344;SDS011;16339;48.748;2.222;2024-03-25T11:07:47;9.15;;;2.80;;
29344;SDS011;16339;48.748;2.222;2024-03-25T11:10:13;6.43;;;2.30;;
29344;SDS011;16339;48.748;2.222;2024-03-25T11:12:41;9.82;;;2.33;;
29344;SDS011;16339;48.748;2.222;2024-03-25T11:15:08;10.80;;;2.63;;
29344;SDS011;16339;48.748;2.222;2024-03-25T11:17:47;6.97;;;2.28;;
29344;SDS011;16339;48.748;2.222;2024-03-25T11:20:14;7.13;;;2.15;;
29344;SDS011;16339;48.748;2.222;2024-03-25T11:22:47;6.68;;;2.03;;
29344;SDS011;16339;48.748;2.222;2024-03-25T11:25:14;7.10;;;1.98;;
29344;SDS011;16339;48.748;2.222;2024-03-25T11:27:42;8.13;;;2.75;;
29344;SDS011;16339;48.748;2.222;2024-03-25T11:33:11;5.80;;;2.28;;
29344;SDS011;16339;48.748;2.222;2024-03-25T11:35:37;7.50;;;2.30;;
29344;SDS011;16339;48.748;2.222;2024-03-25T11:38:04;6.18;;;2.30;;
29344;SDS011;16339;48.748;2.222;2024-03-25T11:40:30;10.13;;;2.50;;
29344;SDS011;16339;48.748;2.222;2024-03-25T11:42:58;9.13;;;2.00;;
29344;SDS011;16339;48.748;2.222;2024-03-25T11:45:24;4.45;;;1.65;;
29344;SDS011;16339;48.748;2.222;2024-03-25T11:47:54;5.95;;;1.92;;
29344;SDS011;16339;48.748;2.222;2024-03-25T11:56:38;5.55;;;1.92;;
29344;SDS011;16339;48.748;2.222;2024-03-25T12:05:28;10.03;;;2.77;;
29344;SDS011;16339;48.748;2.222;2024-03-25T12:08:27;7.43;;;2.33;;
29344;SDS011;16339;48.748;2.222;2024-03-25T12:10:53;7.88;;;2.35;;
29344;SDS011;16339;48.748;2.222;2024-03-25T12:16:10;6.47;;;2.28;;
29344;SDS011;16339;48.748;2.222;2024-03-25T12:18:42;6.68;;;2.35;;
29344;SDS011;16339;48.748;2.222;2024-03-25T12:21:17;6.35;;;2.05;;
29344;SDS011;16339;48.748;2.222;2024-03-25T12:23:55;4.22;;;1.83;;
29344;SDS011;16339;48.748;2.222;2024-03-25T12:26:24;4.93;;;2.17;;
29344;SDS011;16339;48.748;2.222;2024-03-25T12:29:03;6.68;;;1.92;;
29344;SDS011;16339;48.748;2.222;2024-03-25T12:31:31;6.63;;;1.73;;
29344;SDS011;16339;48.748;2.222;2024-03-25T12:34:00;4.95;;;1.70;;
29344;SDS011;16339;48.748;2.222;2024-03-25T12:36:37;3.97;;;1.50;;
29344;SDS011;16339;48.748;2.222;2024-03-25T12:39:14;3.42;;;1.40;;
29344;SDS011;16339;48.748;2.222;2024-03-25T12:41:45;3.65;;;1.40;;
29344;SDS011;16339;48.748;2.222;2024-03-25T12:44:13;5.88;;;1.50;;
29344;SDS011;16339;48.748;2.222;2024-03-25T12:47:09;4.13;;;1.48;;
29344;SDS011;16339;48.748;2.222;2024-03-25T12:49:39;4.78;;;1.73;;
29344;SDS011;16339;48.748;2.222;2024-03-25T12:52:05;5.15;;;1.92;;
29344;SDS011;16339;48.748;2.222;2024-03-25T12:54:35;9.65;;;2.28;;
29344;SDS011;16339;48.748;2.222;2024-03-25T12:57:11;4.38;;;1.88;;
29344;SDS011;16339;48.748;2.222;2024-03-25T12:59:37;7.22;;;1.70;;
29344;SDS011;16339;48.748;2.222;2024-03-25T13:02:03;5.10;;;1.90;;
29344;SDS011;16339;48.748;2.222;2024-03-25T13:04:30;6.43;;;1.60;;
29344;SDS011;16339;48.748;2.222;2024-03-25T13:06:56;7.35;;;1.55;;
29344;SDS011;16339;48.748;2.222;2024-03-25T13:09:22;3.65;;;1.77;;
29344;SDS011;16339;48.748;2.222;2024-03-25T13:11:52;5.65;;;1.73;;
29344;SDS011;16339;48.748;2.222;2024-03-25T13:14:18;4.13;;;1.55;;
29344;SDS011;16339;48.748;2.222;2024-03-25T13:16:45;4.88;;;1.50;;
29344;SDS011;16339;48.748;2.222;2024-03-25T13:19:11;4.65;;;1.52;;
29344;SDS011;16339;48.748;2.222;2024-03-25T13:21:37;4.50;;;1.63;;
29344;SDS011;16339;48.748;2.222;2024-03-25T13:24:04;4.32;;;1.58;;
29344;SDS011;16339;48.748;2.222;2024-03-25T13:26:30;2.95;;;1.48;;
29344;SDS011;16339;48.748;2.222;2024-03-25T14:24:46;5.38;;;1.60;;
29344;SDS011;16339;48.748;2.222;2024-03-25T14:27:12;5.28;;;1.45;;
29344;SDS011;16339;48.748;2.222;2024-03-25T14:29:38;4.47;;;1.65;;
29344;SDS011;16339;48.748;2.222;2024-03-25T14:35:19;4.37;;;1.83;;
29344;SDS011;16339;48.748;2.222;2024-03-25T14:38:00;5.03;;;1.58;;
29344;SDS011;16339;48.748;2.222;2024-03-25T14:40:37;5.63;;;1.73;;
29344;SDS011;16339;48.748;2.222;2024-03-25T14:43:03;3.92;;;1.70;;
29344;SDS011;16339;48.748;2.222;2024-03-25T14:48:23;6.75;;;1.70;;
29344;SDS011;16339;48.748;2.222;2024-03-25T14:57:17;8.40;;;2.07;;
29344;SDS011;16339;48.748;2.222;2024-03-25T14:59:46;8.27;;;2.13;;
29344;SDS011;16339;48.748;2.222;2024-03-25T15:02:13;6.50;;;2.05;;
29344;SDS011;16339;48.748;2.222;2024-03-25T15:04:40;6.20;;;2.38;;
29344;SDS011;16339;48.748;2.222;2024-03-25T15:07:07;5.00;;;2.05;;
29344;SDS011;16339;48.748;2.222;2024-03-25T15:09:33;5.47;;;2.05;;
29344;SDS011;16339;48.748;2.222;2024-03-25T15:11:59;6.22;;;2.15;;
29344;SDS011;16339;48.748;2.222;2024-03-25T15:14:30;3.85;;;2.13;;
29344;SDS011;16339;48.748;2.222;2024-03-25T15:16:56;5.50;;;1.95;;
29344;SDS011;16339;48.748;2.222;2024-03-25T15:19:23;3.65;;;2.25;;
29344;SDS011;16339;48.748;2.222;2024-03-25T15:33:45;7.05;;;2.13;;
29344;SDS011;16339;48.748;2.222;2024-03-25T15:36:14;5.63;;;2.20;;
29344;SDS011;16339;48.748;2.222;2024-03-25T15:38:42;7.50;;;2.20;;
29344;SDS011;16339;48.748;2.222;2024-03-25T15:41:08;10.75;;;2.80;;
